Time;durP1;ratioP1;P1;durP2;ratioP2;P2;SDS_P1;SDS_P2;PMS_P1;PMS_P2;Temp;Humidity;BMP_temperature;BMP_pressure;BME280_temperature;BME280_humidity;BME280_pressure;Samples;Min_cycle;Max_cycle;Signal;HPM_P1;HPM_P2
2023/08/31 00:01:33;;;;;;;7.13;2.78;;;;;;;;;;5093912;28;20205;-47
2023/08/31 00:04:00;;;;;;;5.10;3.45;;;;;;;;;;5093699;28;20217;-46
2023/08/31 00:06:27;;;;;;;3.97;2.10;;;;;;;;;;5093820;28;20211;-46
2023/08/31 00:08:55;;;;;;;3.45;2.50;;;;;;;;;;5093868;28;20225;-48
2023/08/31 00:11:25;;;;;;;3.90;2.42;;;;;;;;;;5093895;28;20187;-46
2023/08/31 00:13:53;;;;;;;3.38;2.15;;;;;;;;;;5093821;28;20222;-47
2023/08/31 00:16:25;;;;;;;4.32;2.55;;;;;;;;;;5093787;28;20226;-47
2023/08/31 00:18:52;;;;;;;8.82;2.75;;;;;;;;;;5093872;28;20205;-46
2023/08/31 00:21:21;;;;;;;3.63;2.53;;;;;;;;;;5093714;28;20199;-46
2023/08/31 00:23:49;;;;;;;5.30;2.83;;;;;;;;;;5093208;28;20701;-46
2023/08/31 00:26:16;;;;;;;3.70;2.55;;;;;;;;;;5093336;28;20225;-47
2023/08/31 00:28:46;;;;;;;4.85;3.40;;;;;;;;;;5093724;28;20179;-46
2023/08/31 00:31:13;;;;;;;5.47;3.50;;;;;;;;;;5092418;28;20285;-46
2023/08/31 00:33:41;;;;;;;4.93;3.10;;;;;;;;;;5093263;28;20755;-45
2023/08/31 00:36:08;;;;;;;5.43;2.80;;;;;;;;;;5093141;28;20571;-46
2023/08/31 00:38:35;;;;;;;6.53;3.05;;;;;;;;;;5093651;28;20206;-48
2023/08/31 00:41:03;;;;;;;5.55;2.95;;;;;;;;;;5093342;28;20194;-46
2023/08/31 00:43:31;;;;;;;5.97;3.25;;;;;;;;;;5093287;28;20255;-45
2023/08/31 00:45:58;;;;;;;7.10;3.08;;;;;;;;;;5093463;28;20206;-48
2023/08/31 00:48:26;;;;;;;6.93;2.92;;;;;;;;;;5092139;28;20206;-46
2023/08/31 00:50:53;;;;;;;6.85;3.10;;;;;;;;;;5093291;28;20280;-46
2023/08/31 00:53:21;;;;;;;5.18;3.13;;;;;;;;;;5092990;28;20237;-48
2023/08/31 00:55:48;;;;;;;4.43;2.70;;;;;;;;;;5092156;28;20202;-46
2023/08/31 00:58:15;;;;;;;4.47;3.22;;;;;;;;;;5091808;28;20199;-45
2023/08/31 01:01:00;;;;;;;6.80;3.20;;;;;;;;;;5095853;28;20235;-46
2023/08/31 01:03:38;;;;;;;4.88;3.60;;;;;;;;;;5095812;28;20210;-45
2023/08/31 01:06:12;;;;;;;4.40;2.70;;;;;;;;;;5095740;28;20535;-47
2023/08/31 01:08:58;;;;;;;4.70;3.08;;;;;;;;;;5095549;28;20245;-48
2023/08/31 01:11:37;;;;;;;5.18;3.30;;;;;;;;;;5097075;28;20606;-47
2023/08/31 01:14:12;;;;;;;4.72;3.47;;;;;;;;;;5096962;28;20218;-46
2023/08/31 01:16:42;;;;;;;5.13;3.20;;;;;;;;;;5095513;28;20236;-46
2023/08/31 01:19:48;;;;;;;5.63;3.28;;;;;;;;;;5095412;28;20195;-47
2023/08/31 01:22:40;;;;;;;6.03;3.13;;;;;;;;;;5095420;28;20210;-45
2023/08/31 01:25:09;;;;;;;13.25;4.05;;;;;;;;;;5096512;28;20206;-46
2023/08/31 01:27:37;;;;;;;6.63;2.75;;;;;;;;;;5096789;28;20210;-46
2023/08/31 01:30:06;;;;;;;5.05;2.65;;;;;;;;;;5096391;28;20202;-45
2023/08/31 01:32:33;;;;;;;4.32;3.00;;;;;;;;;;5096724;28;20209;-46
2023/08/31 01:35:03;;;;;;;5.40;2.80;;;;;;;;;;5096184;28;20702;-46
2023/08/31 01:37:42;;;;;;;3.75;2.53;;;;;;;;;;5095132;28;20203;-46
2023/08/31 01:40:17;;;;;;;4.78;3.17;;;;;;;;;;5096490;28;20211;-47
2023/08/31 01:42:47;;;;;;;7.60;3.80;;;;;;;;;;5096485;28;20206;-46
2023/08/31 01:45:19;;;;;;;7.03;3.47;;;;;;;;;;5096301;28;20206;-45
2023/08/31 01:47:48;;;;;;;5.35;3.50;;;;;;;;;;5095990;28;20226;-46
2023/08/31 01:50:18;;;;;;;6.88;4.13;;;;;;;;;;5094877;28;20203;-46
2023/08/31 01:52:45;;;;;;;9.73;4.25;;;;;;;;;;5094726;28;20658;-47
2023/08/31 01:55:15;;;;;;;5.70;3.80;;;;;;;;;;5096174;28;20243;-45
2023/08/31 01:57:42;;;;;;;6.10;3.83;;;;;;;;;;5094987;28;20223;-46
2023/08/31 02:00:17;;;;;;;7.00;4.18;;;;;;;;;;5094885;28;20210;-45
2023/08/31 02:02:46;;;;;;;9.77;4.13;;;;;;;;;;5095606;28;20714;-46
2023/08/31 02:05:14;;;;;;;8.25;4.75;;;;;;;;;;5095140;28;20207;-45
2023/08/31 02:07:41;;;;;;;8.23;4.60;;;;;;;;;;5094919;28;20210;-45
2023/08/31 02:10:09;;;;;;;8.50;4.78;;;;;;;;;;5095790;28;20198;-45
2023/08/31 02:12:36;;;;;;;5.95;4.07;;;;;;;;;;5094293;28;20199;-45
2023/08/31 02:15:05;;;;;;;12.13;5.60;;;;;;;;;;5094188;28;20233;-45
2023/08/31 02:17:36;;;;;;;7.60;4.72;;;;;;;;;;5095702;28;20209;-46
2023/08/31 02:20:08;;;;;;;9.05;5.43;;;;;;;;;;5095453;28;20191;-47
2023/08/31 02:22:35;;;;;;;10.07;5.63;;;;;;;;;;5094354;28;20260;-47
2023/08/31 02:25:03;;;;;;;8.55;4.60;;;;;;;;;;5095720;28;20202;-45
2023/08/31 02:27:30;;;;;;;9.20;5.00;;;;;;;;;;5094182;28;20230;-46
2023/08/31 02:29:57;;;;;;;9.18;5.30;;;;;;;;;;5095170;28;20203;-45
2023/08/31 02:32:24;;;;;;;7.35;5.00;;;;;;;;;;5094028;28;20286;-47
2023/08/31 02:34:51;;;;;;;13.35;5.38;;;;;;;;;;5094120;28;20234;-46
2023/08/31 02:37:18;;;;;;;12.35;5.57;;;;;;;;;;5093824;28;20202;-46
2023/08/31 02:39:46;;;;;;;8.98;5.45;;;;;;;;;;5095337;28;20203;-46
2023/08/31 02:42:14;;;;;;;8.18;5.15;;;;;;;;;;5095251;28;20255;-45
2023/08/31 02:44:41;;;;;;;9.90;6.05;;;;;;;;;;5094087;28;20210;-45
2023/08/31 02:47:08;;;;;;;10.25;5.65;;;;;;;;;;5093947;28;20205;-46
2023/08/31 02:49:35;;;;;;;7.63;4.93;;;;;;;;;;5095033;28;20207;-45
2023/08/31 02:52:03;;;;;;;8.57;5.45;;;;;;;;;;5094810;28;20199;-47
2023/08/31 02:54:30;;;;;;;9.13;5.10;;;;;;;;;;5093841;28;20230;-45
2023/08/31 02:56:57;;;;;;;8.73;5.55;;;;;;;;;;5093484;28;20207;-45
2023/08/31 02:59:25;;;;;;;8.63;4.90;;;;;;;;;;5093783;28;20202;-45
2023/08/31 03:01:52;;;;;;;10.38;5.10;;;;;;;;;;5093661;28;20285;-45
2023/08/31 03:04:19;;;;;;;8.52;5.10;;;;;;;;;;5093424;28;20229;-46
2023/08/31 03:06:47;;;;;;;10.90;4.90;;;;;;;;;;5094450;28;20666;-46
2023/08/31 03:09:14;;;;;;;9.23;4.93;;;;;;;;;;5093322;28;20260;-47
2023/08/31 03:11:41;;;;;;;9.00;5.45;;;;;;;;;;5093102;28;20202;-45
2023/08/31 03:14:09;;;;;;;9.73;4.90;;;;;;;;;;5093268;28;20198;-45
2023/08/31 03:16:36;;;;;;;7.03;4.85;;;;;;;;;;5092928;28;20748;-45
2023/08/31 03:19:05;;;;;;;8.93;5.22;;;;;;;;;;5092823;28;20199;-45
2023/08/31 03:21:32;;;;;;;9.10;5.32;;;;;;;;;;5093988;28;20263;-46
2023/08/31 03:24:00;;;;;;;8.75;5.20;;;;;;;;;;5093333;28;20234;-45
2023/08/31 03:26:26;;;;;;;8.30;5.30;;;;;;;;;;5072816;28;20207;-46
2023/08/31 03:28:54;;;;;;;9.77;5.22;;;;;;;;;;5072974;28;20203;-47
2023/08/31 03:31:21;;;;;;;8.10;5.18;;;;;;;;;;5072282;28;20207;-47
2023/08/31 03:33:50;;;;;;;11.23;5.88;;;;;;;;;;5072087;28;20199;-46
2023/08/31 03:36:17;;;;;;;8.82;5.38;;;;;;;;;;5072357;28;20231;-45
2023/08/31 03:38:44;;;;;;;7.93;4.88;;;;;;;;;;5072010;28;20214;-46
2023/08/31 03:41:12;;;;;;;10.10;5.20;;;;;;;;;;5072163;28;20207;-48
2023/08/31 03:43:39;;;;;;;8.15;5.25;;;;;;;;;;5072396;28;20207;-45
2023/08/31 03:46:06;;;;;;;8.57;5.22;;;;;;;;;;5075523;28;20684;-47
2023/08/31 03:48:33;;;;;;;11.05;5.85;;;;;;;;;;5073260;28;20663;-52
2023/08/31 03:51:00;;;;;;;10.10;5.40;;;;;;;;;;5073617;28;20661;-47
2023/08/31 03:53:28;;;;;;;11.02;5.70;;;;;;;;;;5072371;28;20215;-47
2023/08/31 03:55:58;;;;;;;9.73;5.78;;;;;;;;;;5072170;28;20265;-46
2023/08/31 03:58:25;;;;;;;9.27;5.93;;;;;;;;;;5072046;28;20206;-46
2023/08/31 04:00:54;;;;;;;9.82;5.47;;;;;;;;;;5072127;28;20336;-50
2023/08/31 04:03:22;;;;;;;10.25;5.68;;;;;;;;;;5077665;28;20234;-47
2023/08/31 04:05:53;;;;;;;9.75;5.65;;;;;;;;;;5072007;28;20258;-46
2023/08/31 04:08:21;;;;;;;10.70;6.07;;;;;;;;;;5078637;28;20596;-45
2023/08/31 04:10:48;;;;;;;8.90;5.88;;;;;;;;;;5086661;28;20264;-45
2023/08/31 04:13:15;;;;;;;13.15;6.22;;;;;;;;;;5092298;28;20686;-47
2023/08/31 04:15:42;;;;;;;10.95;6.03;;;;;;;;;;5091437;28;20706;-46
2023/08/31 04:18:10;;;;;;;10.98;6.18;;;;;;;;;;5092599;28;20238;-45
2023/08/31 04:20:37;;;;;;;14.00;6.07;;;;;;;;;;5091317;28;20215;-45
2023/08/31 04:23:04;;;;;;;10.25;6.45;;;;;;;;;;5092667;28;20561;-46
2023/08/31 04:25:31;;;;;;;8.70;5.95;;;;;;;;;;5093183;28;20226;-45
2023/08/31 04:27:59;;;;;;;9.98;5.35;;;;;;;;;;5092249;28;20222;-47
2023/08/31 04:30:26;;;;;;;8.60;5.40;;;;;;;;;;5092933;28;20215;-45
2023/08/31 04:32:54;;;;;;;10.65;5.20;;;;;;;;;;5092612;28;20562;-47
2023/08/31 04:35:21;;;;;;;8.10;4.90;;;;;;;;;;5094473;28;20642;-46
2023/08/31 04:37:48;;;;;;;9.73;5.60;;;;;;;;;;5096519;28;20237;-45
2023/08/31 04:40:15;;;;;;;8.77;4.95;;;;;;;;;;5096661;28;20754;-45
2023/08/31 04:42:43;;;;;;;7.88;5.47;;;;;;;;;;5096585;28;20222;-46
2023/08/31 04:45:12;;;;;;;9.45;5.93;;;;;;;;;;5096366;28;20227;-47
2023/08/31 04:47:39;;;;;;;20.67;16.45;;;;;;;;;;5096417;28;20584;-43
2023/08/31 04:50:07;;;;;;;10.20;6.57;;;;;;;;;;5094525;28;20230;-43
2023/08/31 04:52:34;;;;;;;11.57;6.18;;;;;;;;;;5079166;28;20227;-45
2023/08/31 04:55:03;;;;;;;9.52;5.95;;;;;;;;;;5075034;28;20227;-46
2023/08/31 04:57:30;;;;;;;9.88;6.00;;;;;;;;;;5074607;28;20223;-44
2023/08/31 04:59:57;;;;;;;11.45;6.13;;;;;;;;;;5076046;28;20284;-44
2023/08/31 05:02:25;;;;;;;9.48;6.00;;;;;;;;;;5076049;28;20227;-44
2023/08/31 05:04:52;;;;;;;10.27;5.63;;;;;;;;;;5075753;28;20227;-44
2023/08/31 05:07:19;;;;;;;9.30;6.03;;;;;;;;;;5075366;28;20235;-44
2023/08/31 05:09:46;;;;;;;10.32;5.65;;;;;;;;;;5076081;28;20280;-43
2023/08/31 05:12:13;;;;;;;9.70;5.63;;;;;;;;;;5075942;28;20227;-44
2023/08/31 05:14:40;;;;;;;7.68;5.53;;;;;;;;;;5076146;28;20226;-43
2023/08/31 05:17:07;;;;;;;9.90;6.15;;;;;;;;;;5086272;28;20238;-43
2023/08/31 05:19:34;;;;;;;9.13;6.13;;;;;;;;;;5095637;28;20560;-45
2023/08/31 05:22:02;;;;;;;10.30;5.97;;;;;;;;;;5095471;28;20581;-44
2023/08/31 05:24:29;;;;;;;8.85;5.85;;;;;;;;;;5096776;28;20321;-43
2023/08/31 05:26:56;;;;;;;9.50;5.85;;;;;;;;;;5096146;28;20681;-43
2023/08/31 05:29:23;;;;;;;12.27;6.82;;;;;;;;;;5096676;28;20260;-43
2023/08/31 05:31:54;;;;;;;9.02;6.43;;;;;;;;;;5096573;28;20567;-42
2023/08/31 05:34:22;;;;;;;11.20;6.57;;;;;;;;;;5096434;28;20236;-43
2023/08/31 05:36:49;;;;;;;14.05;5.88;;;;;;;;;;5096334;28;20231;-43
2023/08/31 05:39:16;;;;;;;9.93;6.22;;;;;;;;;;5096274;28;20251;-43
2023/08/31 05:41:44;;;;;;;9.50;6.68;;;;;;;;;;5096562;28;20191;-45
2023/08/31 05:44:11;;;;;;;10.68;6.57;;;;;;;;;;5096094;28;20202;-43
2023/08/31 05:46:40;;;;;;;11.98;6.55;;;;;;;;;;5095795;28;20198;-44
2023/08/31 05:49:07;;;;;;;9.10;6.30;;;;;;;;;;5096161;28;20282;-45
2023/08/31 05:51:35;;;;;;;13.82;7.63;;;;;;;;;;5096064;28;20237;-44
2023/08/31 05:54:02;;;;;;;11.90;7.20;;;;;;;;;;5096193;28;20210;-44
2023/08/31 05:56:30;;;;;;;13.82;8.10;;;;;;;;;;5096182;28;20279;-43
2023/08/31 05:58:57;;;;;;;10.68;7.32;;;;;;;;;;5096138;28;20285;-44
2023/08/31 06:01:25;;;;;;;10.80;7.32;;;;;;;;;;5096341;28;20256;-44
2023/08/31 06:03:52;;;;;;;11.75;7.72;;;;;;;;;;5095910;28;20198;-45
2023/08/31 06:06:19;;;;;;;12.75;8.18;;;;;;;;;;5095722;28;20207;-43
2023/08/31 06:08:46;;;;;;;12.27;7.82;;;;;;;;;;5095705;28;20536;-43
2023/08/31 06:11:14;;;;;;;12.05;7.90;;;;;;;;;;5094310;28;20198;-44
2023/08/31 06:13:41;;;;;;;11.65;8.15;;;;;;;;;;5083801;28;20182;-44
2023/08/31 06:16:08;;;;;;;11.40;8.20;;;;;;;;;;5084069;28;20219;-45
2023/08/31 06:18:35;;;;;;;13.95;9.10;;;;;;;;;;5084749;28;20548;-43
2023/08/31 06:21:02;;;;;;;13.25;8.63;;;;;;;;;;5085727;28;20206;-44
2023/08/31 06:23:29;;;;;;;11.52;8.18;;;;;;;;;;5084243;28;20231;-43
2023/08/31 06:25:57;;;;;;;11.43;8.25;;;;;;;;;;5079035;28;20277;-44
2023/08/31 06:28:23;;;;;;;13.18;9.02;;;;;;;;;;5075022;28;20199;-43
2023/08/31 06:30:51;;;;;;;10.43;7.63;;;;;;;;;;5075033;28;20214;-43
2023/08/31 06:33:19;;;;;;;8.95;6.88;;;;;;;;;;5074870;28;20204;-43
2023/08/31 06:35:51;;;;;;;9.23;6.68;;;;;;;;;;5074761;28;20223;-43
2023/08/31 06:38:19;;;;;;;10.20;6.85;;;;;;;;;;5074878;28;20279;-43
2023/08/31 06:40:47;;;;;;;11.23;7.45;;;;;;;;;;5074966;28;20249;-44
2023/08/31 06:43:14;;;;;;;9.70;7.10;;;;;;;;;;5075001;28;20218;-43
2023/08/31 06:45:41;;;;;;;11.90;8.38;;;;;;;;;;5074921;28;20269;-43
2023/08/31 06:48:09;;;;;;;13.18;7.53;;;;;;;;;;5074537;28;20195;-43
2023/08/31 06:50:36;;;;;;;12.70;8.90;;;;;;;;;;5089585;28;20199;-43
2023/08/31 06:53:04;;;;;;;11.40;8.40;;;;;;;;;;5074726;28;20265;-43
2023/08/31 06:55:31;;;;;;;14.77;8.75;;;;;;;;;;5074522;28;20227;-44
2023/08/31 06:58:01;;;;;;;11.68;8.07;;;;;;;;;;5073582;28;20203;-43
2023/08/31 07:00:28;;;;;;;13.98;9.35;;;;;;;;;;5074414;28;20196;-43
2023/08/31 07:02:55;;;;;;;14.27;9.07;;;;;;;;;;5074285;28;20290;-43
2023/08/31 07:05:25;;;;;;;14.38;10.02;;;;;;;;;;5074199;28;20387;-44
2023/08/31 07:07:54;;;;;;;20.10;10.02;;;;;;;;;;5074795;28;20695;-43
2023/08/31 07:10:22;;;;;;;15.25;9.77;;;;;;;;;;5072978;28;20214;-44
2023/08/31 07:12:49;;;;;;;15.57;10.80;;;;;;;;;;5076729;28;20226;-46
2023/08/31 07:15:16;;;;;;;16.67;10.75;;;;;;;;;;5083786;28;20187;-43
2023/08/31 07:17:43;;;;;;;16.65;10.65;;;;;;;;;;5082689;28;20681;-44
2023/08/31 07:20:11;;;;;;;16.50;10.45;;;;;;;;;;5082828;28;20198;-43
2023/08/31 07:22:40;;;;;;;18.55;10.93;;;;;;;;;;5083574;28;20191;-42
2023/08/31 07:25:07;;;;;;;15.80;9.90;;;;;;;;;;5082685;28;20223;-43
2023/08/31 07:27:35;;;;;;;17.63;11.57;;;;;;;;;;5083767;28;20260;-44
2023/08/31 07:30:03;;;;;;;17.20;10.75;;;;;;;;;;5084509;28;20191;-45
2023/08/31 07:32:31;;;;;;;16.02;10.45;;;;;;;;;;5085099;28;20655;-44
2023/08/31 07:34:59;;;;;;;15.20;10.80;;;;;;;;;;5083773;28;20198;-46
2023/08/31 07:37:26;;;;;;;17.80;11.50;;;;;;;;;;5084442;28;20307;-44
2023/08/31 07:39:53;;;;;;;12.85;9.32;;;;;;;;;;5082589;28;20203;-45
2023/08/31 07:42:20;;;;;;;15.57;11.02;;;;;;;;;;5083098;28;20195;-43
2023/08/31 07:44:47;;;;;;;14.65;10.40;;;;;;;;;;5084498;28;20256;-44
2023/08/31 07:47:14;;;;;;;13.90;9.10;;;;;;;;;;5082494;28;20561;-43
2023/08/31 07:49:42;;;;;;;14.70;10.70;;;;;;;;;;5085221;28;21283;-47
2023/08/31 07:52:09;;;;;;;12.63;8.85;;;;;;;;;;5087158;28;20190;-46
2023/08/31 07:54:36;;;;;;;11.18;8.18;;;;;;;;;;5085468;28;20209;-46
2023/08/31 07:57:03;;;;;;;15.27;8.90;;;;;;;;;;5086623;28;20254;-46
2023/08/31 07:59:31;;;;;;;13.27;9.23;;;;;;;;;;5087130;28;20221;-46
2023/08/31 08:01:58;;;;;;;12.25;8.50;;;;;;;;;;5087023;28;20203;-47
2023/08/31 08:04:26;;;;;;;13.43;8.38;;;;;;;;;;5086149;28;20559;-47
2023/08/31 08:06:54;;;;;;;10.93;8.15;;;;;;;;;;5086704;28;20213;-46
2023/08/31 08:09:21;;;;;;;12.30;7.35;;;;;;;;;;5084875;28;20198;-46
2023/08/31 08:11:48;;;;;;;11.15;6.82;;;;;;;;;;5086541;28;20286;-46
2023/08/31 08:14:15;;;;;;;13.30;6.72;;;;;;;;;;5084861;28;20199;-46
2023/08/31 08:16:43;;;;;;;11.63;6.88;;;;;;;;;;5088248;28;20701;-46
2023/08/31 08:19:10;;;;;;;7.63;6.00;;;;;;;;;;5086719;28;20203;-46
2023/08/31 08:21:37;;;;;;;7.72;5.78;;;;;;;;;;5083990;28;20200;-47
2023/08/31 08:24:05;;;;;;;9.38;5.00;;;;;;;;;;5086658;28;20231;-46
2023/08/31 08:26:31;;;;;;;5.72;4.20;;;;;;;;;;5083760;28;20202;-45
2023/08/31 08:28:59;;;;;;;5.53;4.05;;;;;;;;;;5084005;28;20201;-47
2023/08/31 08:31:26;;;;;;;4.88;3.65;;;;;;;;;;5084171;28;20205;-46
2023/08/31 08:33:53;;;;;;;3.33;2.83;;;;;;;;;;5084940;28;20200;-46
2023/08/31 08:36:20;;;;;;;5.18;3.10;;;;;;;;;;5080579;28;20229;-46
2023/08/31 08:38:47;;;;;;;4.38;2.63;;;;;;;;;;5079597;28;20632;-45
2023/08/31 08:41:18;;;;;;;3.53;2.30;;;;;;;;;;5084062;28;20276;-46
2023/08/31 08:43:47;;;;;;;3.03;2.00;;;;;;;;;;5082717;28;20223;-47
2023/08/31 08:46:14;;;;;;;2.60;2.22;;;;;;;;;;5080309;28;20242;-46
2023/08/31 08:48:42;;;;;;;4.13;2.50;;;;;;;;;;5086152;28;20705;-47
2023/08/31 08:51:09;;;;;;;2.97;2.20;;;;;;;;;;5084237;28;20637;-46
2023/08/31 08:53:38;;;;;;;5.28;2.38;;;;;;;;;;5083484;28;20214;-46
2023/08/31 08:56:05;;;;;;;2.63;2.17;;;;;;;;;;5090503;28;20222;-47
2023/08/31 08:58:33;;;;;;;3.15;2.25;;;;;;;;;;5085713;28;20225;-46
2023/08/31 09:01:01;;;;;;;2.45;2.10;;;;;;;;;;5081246;28;20249;-47
2023/08/31 09:03:28;;;;;;;3.17;2.33;;;;;;;;;;5090569;28;20223;-46
2023/08/31 09:05:55;;;;;;;3.55;2.40;;;;;;;;;;5081389;28;20634;-46
2023/08/31 09:08:26;;;;;;;2.78;2.13;;;;;;;;;;5081168;28;20215;-46
2023/08/31 09:10:57;;;;;;;3.40;2.38;;;;;;;;;;5085806;28;20226;-47
2023/08/31 09:13:29;;;;;;;3.70;2.55;;;;;;;;;;5087786;28;20714;-46
2023/08/31 09:15:57;;;;;;;3.05;2.40;;;;;;;;;;5086931;28;20215;-46
2023/08/31 09:18:28;;;;;;;3.00;2.50;;;;;;;;;;5082181;28;20214;-46
2023/08/31 09:20:56;;;;;;;3.63;2.08;;;;;;;;;;5086822;28;20222;-47
2023/08/31 09:23:24;;;;;;;2.30;2.00;;;;;;;;;;5089900;28;20598;-47
2023/08/31 09:25:53;;;;;;;2.33;2.13;;;;;;;;;;5087125;28;20211;-46
2023/08/31 09:28:27;;;;;;;2.15;1.95;;;;;;;;;;5084920;28;20281;-46
2023/08/31 09:31:06;;;;;;;6.15;2.60;;;;;;;;;;5087135;28;20219;-45
2023/08/31 09:33:37;;;;;;;6.03;3.10;;;;;;;;;;5084158;28;20223;-46
2023/08/31 09:36:07;;;;;;;4.88;3.30;;;;;;;;;;5087265;28;20316;-47
2023/08/31 09:38:44;;;;;;;3.85;3.40;;;;;;;;;;5086737;28;20709;-46
2023/08/31 09:41:12;;;;;;;3.83;3.17;;;;;;;;;;5095184;28;20198;-47
2023/08/31 09:43:39;;;;;;;5.15;3.45;;;;;;;;;;5095426;28;20191;-46
2023/08/31 09:46:06;;;;;;;3.83;3.33;;;;;;;;;;5095899;28;20210;-43
2023/08/31 09:48:34;;;;;;;4.85;3.78;;;;;;;;;;5085621;28;20198;-46
2023/08/31 09:51:03;;;;;;;5.32;3.85;;;;;;;;;;5096032;28;20199;-45
2023/08/31 09:53:31;;;;;;;6.57;3.45;;;;;;;;;;5095485;28;20213;-46
2023/08/31 09:55:59;;;;;;;3.47;3.10;;;;;;;;;;5095807;28;20199;-46
2023/08/31 09:58:28;;;;;;;3.70;3.25;;;;;;;;;;5087234;28;20199;-46
2023/08/31 10:00:56;;;;;;;6.60;3.92;;;;;;;;;;5095134;28;20202;-46
2023/08/31 10:03:23;;;;;;;4.55;3.67;;;;;;;;;;5094090;28;20202;-46
2023/08/31 10:05:50;;;;;;;6.43;3.78;;;;;;;;;;5095014;28;20225;-46
2023/08/31 10:08:18;;;;;;;5.18;3.88;;;;;;;;;;5094795;28;20199;-46
2023/08/31 10:10:46;;;;;;;5.28;3.92;;;;;;;;;;5094978;28;20248;-45
2023/08/31 10:13:15;;;;;;;5.22;4.13;;;;;;;;;;5094221;28;20210;-46
2023/08/31 10:15:44;;;;;;;6.43;4.68;;;;;;;;;;5083898;28;20199;-46
2023/08/31 10:18:11;;;;;;;6.60;4.60;;;;;;;;;;5094897;28;20222;-45
2023/08/31 10:20:42;;;;;;;6.30;4.63;;;;;;;;;;5094859;28;20281;-46
2023/08/31 10:23:09;;;;;;;5.25;4.50;;;;;;;;;;5091901;28;20226;-45
2023/08/31 10:25:49;;;;;;;7.72;5.05;;;;;;;;;;5093512;28;20221;-46
2023/08/31 10:28:18;;;;;;;7.18;5.43;;;;;;;;;;5094711;28;20568;-46
2023/08/31 10:31:07;;;;;;;6.53;5.20;;;;;;;;;;5094205;28;20604;-46
2023/08/31 10:33:45;;;;;;;6.95;5.50;;;;;;;;;;5081051;28;20203;-46
2023/08/31 10:36:17;;;;;;;6.97;5.15;;;;;;;;;;5094543;28;20217;-45
2023/08/31 10:38:46;;;;;;;6.78;4.93;;;;;;;;;;5092882;28;20198;-46
2023/08/31 10:41:13;;;;;;;5.82;4.57;;;;;;;;;;5093492;28;20195;-45
2023/08/31 10:43:57;;;;;;;5.60;4.60;;;;;;;;;;5094190;28;20203;-46
2023/08/31 10:46:31;;;;;;;5.47;4.80;;;;;;;;;;5094372;28;20202;-46
2023/08/31 10:49:00;;;;;;;7.35;4.25;;;;;;;;;;5094177;28;20202;-45
2023/08/31 10:51:31;;;;;;;5.72;4.13;;;;;;;;;;5094205;28;20202;-46
2023/08/31 10:54:15;;;;;;;4.63;3.67;;;;;;;;;;5093020;28;20708;-46
2023/08/31 10:57:04;;;;;;;3.72;3.30;;;;;;;;;;5093725;28;20702;-46
2023/08/31 10:59:51;;;;;;;5.00;3.50;;;;;;;;;;5092613;28;20217;-45
2023/08/31 11:02:38;;;;;;;6.15;3.03;;;;;;;;;;5093911;28;20206;-42
2023/08/31 11:05:09;;;;;;;4.10;3.70;;;;;;;;;;5094912;28;20277;-43
2023/08/31 11:07:38;;;;;;;6.80;3.65;;;;;;;;;;5094426;28;20640;-43
2023/08/31 11:10:19;;;;;;;5.03;3.35;;;;;;;;;;5094466;28;20281;-43
2023/08/31 11:12:48;;;;;;;3.97;3.03;;;;;;;;;;5093866;28;20203;-43
2023/08/31 11:15:17;;;;;;;3.55;2.88;;;;;;;;;;5093806;28;20210;-43
2023/08/31 11:17:46;;;;;;;3.28;2.45;;;;;;;;;;5093627;28;20227;-43
2023/08/31 11:20:16;;;;;;;4.43;2.67;;;;;;;;;;5094083;28;20214;-44
2023/08/31 11:22:46;;;;;;;4.22;2.75;;;;;;;;;;5094460;28;20226;-43
2023/08/31 11:25:14;;;;;;;4.15;2.88;;;;;;;;;;5094157;28;20207;-43
2023/08/31 11:27:41;;;;;;;3.40;2.90;;;;;;;;;;5093946;28;20206;-43
2023/08/31 11:30:14;;;;;;;3.50;2.70;;;;;;;;;;5094317;28;20202;-42
2023/08/31 11:32:47;;;;;;;2.97;2.55;;;;;;;;;;5088622;28;20194;-43
2023/08/31 11:35:16;;;;;;;3.67;2.30;;;;;;;;;;5083630;28;20197;-44
2023/08/31 11:37:48;;;;;;;3.90;2.42;;;;;;;;;;5082457;28;20242;-43
2023/08/31 11:40:15;;;;;;;3.03;2.78;;;;;;;;;;5082133;28;20589;-44
2023/08/31 11:42:43;;;;;;;3.53;2.92;;;;;;;;;;5083524;28;20735;-46
2023/08/31 11:45:12;;;;;;;3.40;2.55;;;;;;;;;;5082100;28;20195;-44
2023/08/31 11:47:40;;;;;;;2.75;2.35;;;;;;;;;;5089582;28;20239;-46
2023/08/31 11:50:08;;;;;;;6.90;2.30;;;;;;;;;;5080249;28;20194;-44
2023/08/31 11:52:35;;;;;;;3.10;2.65;;;;;;;;;;5080174;28;20641;-46
2023/08/31 11:55:08;;;;;;;2.58;2.30;;;;;;;;;;5080340;28;20524;-43
2023/08/31 11:57:35;;;;;;;2.28;2.08;;;;;;;;;;5080958;28;20207;-45
2023/08/31 12:00:05;;;;;;;2.05;1.80;;;;;;;;;;5080516;28;20748;-45
2023/08/31 12:02:36;;;;;;;2.40;1.80;;;;;;;;;;5082565;28;20590;-44
2023/08/31 12:05:05;;;;;;;2.00;1.75;;;;;;;;;;5081015;28;20188;-44
2023/08/31 12:07:39;;;;;;;2.55;1.63;;;;;;;;;;5084348;28;20206;-44
2023/08/31 12:10:07;;;;;;;1.30;1.20;;;;;;;;;;5081756;28;20642;-44
2023/08/31 12:12:34;;;;;;;1.90;1.50;;;;;;;;;;5081711;28;20215;-43
2023/08/31 12:15:05;;;;;;;3.20;1.70;;;;;;;;;;5073847;28;20199;-45
2023/08/31 12:17:37;;;;;;;1.75;1.30;;;;;;;;;;5077682;28;20679;-46
2023/08/31 12:20:05;;;;;;;11.18;1.52;;;;;;;;;;5079644;28;20306;-44
2023/08/31 12:22:33;;;;;;;2.00;1.35;;;;;;;;;;5082803;28;20199;-44
2023/08/31 12:25:00;;;;;;;2.17;1.30;;;;;;;;;;5077031;28;20223;-43
2023/08/31 12:27:27;;;;;;;1.40;1.30;;;;;;;;;;5081210;28;20226;-44
2023/08/31 12:29:55;;;;;;;1.67;1.45;;;;;;;;;;5085392;28;20227;-46
2023/08/31 12:32:22;;;;;;;1.67;1.35;;;;;;;;;;5082083;28;20229;-47
2023/08/31 12:34:49;;;;;;;2.45;1.30;;;;;;;;;;5084941;28;20278;-44
2023/08/31 12:37:17;;;;;;;1.88;1.17;;;;;;;;;;5089764;28;20218;-43
2023/08/31 12:39:45;;;;;;;1.85;1.38;;;;;;;;;;5082481;28;20198;-46
2023/08/31 12:42:13;;;;;;;1.25;1.15;;;;;;;;;;5087028;28;20191;-46
2023/08/31 12:44:50;;;;;;;1.70;1.20;;;;;;;;;;5084502;28;20197;-45
2023/08/31 12:47:17;;;;;;;1.42;1.33;;;;;;;;;;5085460;28;20246;-43
2023/08/31 12:49:44;;;;;;;2.17;1.20;;;;;;;;;;5084609;28;20243;-44
2023/08/31 12:52:11;;;;;;;1.88;1.42;;;;;;;;;;5073323;28;20291;-45
2023/08/31 12:54:38;;;;;;;3.55;1.30;;;;;;;;;;5069675;28;20253;-45
2023/08/31 12:57:05;;;;;;;2.15;1.38;;;;;;;;;;5083885;28;20223;-44
2023/08/31 12:59:36;;;;;;;1.40;1.30;;;;;;;;;;5090906;28;20746;-43
2023/08/31 13:02:06;;;;;;;2.00;1.17;;;;;;;;;;5083681;28;20250;-43
2023/08/31 13:04:34;;;;;;;2.25;1.27;;;;;;;;;;5094468;28;20226;-43
2023/08/31 13:07:03;;;;;;;2.55;1.30;;;;;;;;;;5094118;28;20707;-43
2023/08/31 13:09:31;;;;;;;1.90;1.40;;;;;;;;;;5093304;28;20249;-43
2023/08/31 13:11:58;;;;;;;1.40;1.30;;;;;;;;;;5093372;28;20313;-44
2023/08/31 13:14:25;;;;;;;1.70;1.30;;;;;;;;;;5095249;28;20226;-45
2023/08/31 13:16:52;;;;;;;2.42;1.70;;;;;;;;;;5088764;28;20216;-43
2023/08/31 13:19:19;;;;;;;2.72;1.10;;;;;;;;;;5075437;28;20249;-43
2023/08/31 13:21:46;;;;;;;1.13;1.02;;;;;;;;;;5074724;28;20238;-42
2023/08/31 13:24:14;;;;;;;1.50;0.98;;;;;;;;;;5075674;28;20239;-42
2023/08/31 13:26:46;;;;;;;2.42;1.10;;;;;;;;;;5075343;28;20215;-45
2023/08/31 13:29:14;;;;;;;1.45;1.00;;;;;;;;;;5075839;28;20255;-46
2023/08/31 13:31:42;;;;;;;0.90;0.80;;;;;;;;;;5075186;28;20277;-43
2023/08/31 13:34:10;;;;;;;1.63;1.05;;;;;;;;;;5075570;28;20231;-42
2023/08/31 13:36:37;;;;;;;1.15;0.93;;;;;;;;;;5084174;28;20223;-43
2023/08/31 13:39:04;;;;;;;3.90;1.33;;;;;;;;;;5095652;28;20256;-43
2023/08/31 13:41:31;;;;;;;2.50;1.65;;;;;;;;;;5095963;28;20337;-43
2023/08/31 13:43:59;;;;;;;3.25;2.10;;;;;;;;;;5095306;28;20279;-43
2023/08/31 13:46:25;;;;;;;4.97;2.47;;;;;;;;;;5086312;28;20721;-46
2023/08/31 13:48:53;;;;;;;3.20;2.35;;;;;;;;;;5083309;28;20531;-44
2023/08/31 13:51:20;;;;;;;28.52;4.05;;;;;;;;;;5085227;28;20234;-42
2023/08/31 13:53:47;;;;;;;5.22;2.53;;;;;;;;;;5074828;28;20227;-44
2023/08/31 13:56:14;;;;;;;4.13;2.63;;;;;;;;;;5075168;28;20771;-43
2023/08/31 13:58:42;;;;;;;3.63;2.33;;;;;;;;;;5074882;28;20223;-43
2023/08/31 14:01:08;;;;;;;3.42;2.20;;;;;;;;;;5088720;28;20215;-46
2023/08/31 14:03:36;;;;;;;5.70;3.30;;;;;;;;;;5088835;28;20223;-44
2023/08/31 14:06:03;;;;;;;7.63;4.38;;;;;;;;;;5083753;28;20565;-43
2023/08/31 14:08:33;;;;;;;5.90;4.47;;;;;;;;;;5083751;28;20230;-44
2023/08/31 14:11:01;;;;;;;6.18;4.25;;;;;;;;;;5085544;28;20207;-46
2023/08/31 14:13:28;;;;;;;5.57;3.60;;;;;;;;;;5084334;28;20227;-45
2023/08/31 14:15:57;;;;;;;6.97;3.78;;;;;;;;;;5083382;28;20221;-45
2023/08/31 14:18:28;;;;;;;5.32;3.50;;;;;;;;;;5083339;28;20250;-44
2023/08/31 14:20:57;;;;;;;6.68;4.00;;;;;;;;;;5084858;28;20227;-44
2023/08/31 14:23:25;;;;;;;4.80;3.88;;;;;;;;;;5088601;28;20231;-44
2023/08/31 14:25:52;;;;;;;5.53;3.90;;;;;;;;;;5074186;28;20230;-43
2023/08/31 14:28:19;;;;;;;6.68;4.32;;;;;;;;;;5074038;28;20227;-44
2023/08/31 14:30:46;;;;;;;5.78;4.25;;;;;;;;;;5083023;28;20222;-44
2023/08/31 14:33:13;;;;;;;7.00;4.00;;;;;;;;;;5080365;28;20215;-44
2023/08/31 14:35:40;;;;;;;6.18;4.45;;;;;;;;;;5073929;28;20295;-43
2023/08/31 14:38:10;;;;;;;6.05;4.35;;;;;;;;;;5074341;28;20227;-43
2023/08/31 14:40:41;;;;;;;5.05;3.78;;;;;;;;;;5074198;28;20227;-42
2023/08/31 14:43:08;;;;;;;5.88;3.67;;;;;;;;;;5074000;28;20272;-43
2023/08/31 14:45:38;;;;;;;4.82;3.05;;;;;;;;;;5074206;28;20234;-43
2023/08/31 14:48:05;;;;;;;9.30;3.40;;;;;;;;;;5074253;28;20223;-45